createdAt,value
2019-01-15T03:29:38.182Z,91.99
2019-01-15T03:30:34.768Z,91.04
2019-01-15T03:31:26.194Z,90.09
2019-01-15T03:32:27.567Z,90.19
2019-01-15T03:33:16.525Z,91.23
2019-01-15T03:34:01.798Z,92.18
2019-01-15T03:34:43.797Z,93.04
2019-01-15T03:35:29.896Z,92.85
2019-01-15T03:36:17.519Z,93.04
2019-01-15T03:55:01.345Z,94.27
2019-01-15T03:55:55.602Z,93.89
2019-01-15T03:56:49.006Z,94.18
2019-01-15T03:57:42.291Z,94.56
2019-01-15T03:58:36.103Z,94.27
2019-01-15T03:59:29.305Z,93.89
2019-01-15T04:00:22.727Z,93.41
2019-01-15T04:01:17.939Z,93.6
2019-01-15T04:02:10.518Z,93.99
2019-01-15T04:03:04.849Z,93.04
2019-01-15T04:03:58.821Z,92.94
2019-01-15T04:04:54.139Z,93.89
2019-01-15T04:05:51.657Z,93.04
2019-01-15T04:06:53.178Z,93.13
2019-01-15T04:07:46.746Z,93.32
2019-01-15T04:08:39.956Z,93.89
2019-01-15T04:09:34.222Z,93.89
2019-01-15T04:10:29.938Z,92.94
2019-01-15T04:11:25.884Z,92.85
2019-01-15T04:12:20.331Z,92.18
2019-01-15T04:13:14.755Z,91.13
2019-01-15T04:14:10.405Z,90.75
2019-01-15T04:15:03.762Z,91.04
2019-01-15T04:15:58.190Z,91.89
2019-01-15T04:16:53.850Z,91.99
2019-01-15T04:17:49.458Z,92.08
2019-01-15T04:18:42.385Z,92.37
2019-01-15T04:19:37.767Z,92.66
2019-01-15T04:20:34.542Z,92.75
2019-01-15T04:21:28.829Z,91.8
2019-01-15T04:22:21.309Z,93.04
2019-01-15T04:23:15.061Z,92.75
2019-01-15T04:24:07.813Z,92.66
2019-01-15T04:25:03.378Z,91.8
2019-01-15T04:25:56.116Z,91.8
2019-01-15T04:26:51.876Z,91.89
2019-01-15T05:18:32.727Z,98.92
2019-01-15T05:19:27.032Z,99.99
2019-01-15T05:20:20.045Z,98.73
2019-01-15T05:21:14.251Z,99.64
2019-01-15T05:22:07.530Z,99.44
2019-01-15T05:23:03.072Z,98.69
2019-01-15T05:23:57.038Z,98.35
2019-01-15T05:24:50.071Z,98.21
2019-01-15T05:25:42.928Z,97.74
2019-01-15T06:51:31.076Z,89.52
2019-01-15T07:01:28.328Z,89.85
2019-01-15T07:02:09.835Z,89.56
2019-01-15T07:02:54.455Z,89.56
2019-01-15T07:03:36.954Z,90.14
2019-01-15T07:04:22.481Z,91.28
2019-01-15T07:05:10.528Z,90.14
2019-01-15T07:05:51.640Z,90.33
2019-01-15T07:14:48.748Z,90.7
2019-01-15T07:20:18.229Z,89.75
2019-01-15T07:22:24.052Z,88.8
2019-01-15T07:23:37.897Z,88.52
2019-01-15T07:24:52.360Z,89.85
2019-01-15T07:37:34.853Z,89.66
2019-01-15T08:14:11.812Z,89.14
2019-01-15T08:14:54.093Z,89.42
2019-01-15T08:21:56.568Z,89.04
2019-01-15T08:23:59.601Z,89.32
2019-01-15T08:27:01.073Z,89.61
2019-01-15T08:27:40.960Z,89.99
2019-01-15T11:10:20.962Z,73.52
2019-01-15T11:11:11.916Z,74.1
2019-01-15T11:28:32.858Z,70.57
2019-01-15T11:29:13.379Z,69.9
2019-01-15T11:29:56.805Z,69.23
2019-01-15T11:30:38.172Z,69.62
2019-01-15T11:31:22.318Z,70.09
2019-01-15T11:32:06.951Z,70.57
2019-01-15T11:32:52.244Z,70.09
2019-01-15T11:33:38.694Z,69.81
2019-01-15T11:34:21.423Z,69.9
2019-01-15T11:35:02.529Z,70.09
2019-01-15T11:35:44.789Z,69.9
2019-01-15T11:36:27.381Z,70.19
2019-01-15T11:37:08.256Z,70.67
2019-01-15T11:37:52.196Z,70.47
2019-01-15T11:38:42.334Z,70.25
2019-01-15T11:39:45.892Z,70.76
2019-01-15T11:40:26.544Z,71.11
2019-01-15T11:41:08.155Z,70.28
2019-01-15T11:41:55.535Z,71.87
2019-01-15T11:42:37.678Z,70.67
2019-01-15T11:43:22.590Z,72.09
2019-01-15T11:44:15.330Z,70.76
2019-01-15T11:45:03.300Z,70.76
2019-01-15T11:45:43.595Z,72.57
2019-01-15T11:46:33.710Z,72
2019-01-15T11:51:52.813Z,71.23
2019-01-15T11:52:37.414Z,70.57
2019-01-15T11:53:19.458Z,71.04
2019-01-15T12:16:40.668Z,70.57
2019-01-15T12:23:43.519Z,72.16
2019-01-15T12:24:25.200Z,71.77
2019-01-15T12:25:07.503Z,71.96
2019-01-15T12:25:53.972Z,71.87
2019-01-15T12:26:35.692Z,71.48
2019-01-15T12:27:17.832Z,71.87
2019-01-15T12:27:59.828Z,72.16
2019-01-15T12:28:41.463Z,71.87
2019-01-15T12:29:22.499Z,71.77
2019-01-15T12:30:05.097Z,72.16
2019-01-15T12:30:50.112Z,71.39
2019-01-15T12:31:33.160Z,71.77
2019-01-15T12:32:20.980Z,72.16
2019-01-15T12:33:00.474Z,71.68
2019-01-15T12:33:43.361Z,70.53
2019-01-15T12:34:24.065Z,71.11
2019-01-15T12:35:08.675Z,72.34
2019-01-15T12:35:51.098Z,73.21
2019-01-15T12:36:33.726Z,72.44
2019-01-15T12:37:19.071Z,72.06
2019-01-15T12:38:03.905Z,71.58
2019-01-15T12:40:09.696Z,71.01
2019-01-15T12:40:52.125Z,71.77
2019-01-15T12:41:32.863Z,70.92
2019-01-15T12:42:15.407Z,72.16
2019-01-15T12:42:55.644Z,72.92
2019-01-15T12:43:36.507Z,71.68
2019-01-15T12:44:28.468Z,71.39
2019-01-15T12:51:06.033Z,72.34
2019-01-15T12:51:50.958Z,71.87
2019-01-15T13:04:00.818Z,72.72
2019-01-15T13:04:43.961Z,72.25
2019-01-15T13:05:28.147Z,72.53
2019-01-15T13:06:08.547Z,71.96
2019-01-15T13:06:54.646Z,72.53
2019-01-15T13:07:38.494Z,72.44
2019-01-15T13:08:23.710Z,72.82
2019-01-15T13:09:15.212Z,71.58
2019-01-15T13:09:58.000Z,71.77
2019-01-15T13:10:43.604Z,71.77
2019-01-15T13:11:25.028Z,71.39
2019-01-15T13:12:21.848Z,72.53
2019-01-15T13:13:04.455Z,72.16
2019-01-15T13:13:48.406Z,72.63
2019-01-15T13:14:31.195Z,72.06
2019-01-15T13:15:24.240Z,71.77
2019-01-15T13:16:00.545Z,71.96
2019-01-15T13:16:51.996Z,71.87
2019-01-15T13:17:35.899Z,72.34
2019-01-15T13:18:19.663Z,71.68
2019-01-15T13:19:00.084Z,72.25
2019-01-15T13:19:41.347Z,71.58
2019-01-15T13:44:31.501Z,73.21
2019-01-15T13:45:16.207Z,73.77
2019-01-15T13:46:00.768Z,74.06
2019-01-15T13:46:42.497Z,73.58
2019-01-15T13:47:42.039Z,73.58
2019-01-15T13:53:34.776Z,72.44
2019-01-15T13:54:18.441Z,73.49
2019-01-15T13:55:01.986Z,73.3
2019-01-15T13:55:43.489Z,73.77
2019-01-15T13:56:29.505Z,73.21
2019-01-15T13:57:10.469Z,73.68
2019-01-15T13:57:57.061Z,73.49
2019-01-15T13:58:44.097Z,73.49
2019-01-15T13:59:32.200Z,73.3
2019-01-15T14:00:12.764Z,73.49
2019-01-15T14:00:53.290Z,72.92
2019-01-15T14:01:37.756Z,72.72
2019-01-15T14:02:20.240Z,72.82
2019-01-15T14:03:05.587Z,73.21
2019-01-15T14:03:52.703Z,73.21
2019-01-15T14:04:48.018Z,74.16
2019-01-15T14:05:33.066Z,73.21
2019-01-15T14:06:18.527Z,74.06
2019-01-15T14:07:08.074Z,74.35
2019-01-15T14:08:00.499Z,73.49
2019-01-15T14:08:48.063Z,73.87
2019-01-15T14:09:35.489Z,73.96
2019-01-15T14:10:27.570Z,74.54
2019-01-15T14:11:16.396Z,73.87
2019-01-15T14:11:58.886Z,74.06
2019-01-15T14:12:41.618Z,74.73
2019-01-15T14:13:26.306Z,75.01
2019-01-15T14:22:25.600Z,75.11
2019-01-15T15:31:39.338Z,81.36
2019-01-15T15:32:25.179Z,81.36
2019-01-15T15:33:07.883Z,81.36
2019-01-15T15:33:52.220Z,81.46
2019-01-15T15:34:33.046Z,81.07
2019-01-15T15:35:14.773Z,81.55
2019-01-15T15:35:58.415Z,81.36
2019-01-15T15:36:43.690Z,80.98
2019-01-15T15:37:26.036Z,81.07
2019-01-15T15:38:17.942Z,81.65
2019-01-15T15:39:00.901Z,81.84
2019-01-15T15:39:48.908Z,82.03
2019-01-15T15:40:30.514Z,82.69
2019-01-15T15:41:12.507Z,82.6
2019-01-15T15:41:54.901Z,82.41
2019-01-15T15:42:38.956Z,81.84
2019-01-15T15:43:24.878Z,82.21
2019-01-15T15:44:09.851Z,82.5
2019-01-15T15:44:54.288Z,82.98
2019-01-15T15:45:36.866Z,82.21
2019-01-15T15:46:17.253Z,82.69
2019-01-15T15:47:05.407Z,82.98
2019-01-15T15:47:46.813Z,82.5
2019-01-15T15:49:51.058Z,83.55
2019-01-15T16:00:13.876Z,84.03
2019-01-15T16:00:57.597Z,84.5
2019-01-15T16:01:42.342Z,84.69
2019-01-15T16:02:24.641Z,84.22
2019-01-15T16:03:06.897Z,83.84
2019-01-15T16:03:47.216Z,84.79
2019-01-15T16:04:31.273Z,85.17
2019-01-15T16:05:11.710Z,84.79
2019-01-15T16:05:55.658Z,84.98
2019-01-15T16:23:00.545Z,83.74
2019-01-15T16:23:43.866Z,83.36
2019-01-15T16:24:27.365Z,83.55
2019-01-15T16:25:09.349Z,83.17
2019-01-15T16:25:49.823Z,83.74
2019-01-15T16:26:32.005Z,84.31
2019-01-15T16:27:12.729Z,83.65
2019-01-15T16:27:53.971Z,83.74
2019-01-15T16:28:39.695Z,83.55
2019-01-15T16:29:21.980Z,84.41
2019-01-15T16:30:05.940Z,83.07
2019-01-15T16:30:48.129Z,82.98
2019-01-15T17:09:00.343Z,84.89
2019-01-15T17:10:14.258Z,85.94
2019-01-15T17:12:04.607Z,85.08
2019-01-15T17:12:46.745Z,85.37
2019-01-15T17:13:30.079Z,85.66
2019-01-15T17:14:11.888Z,84.8
2019-01-15T17:14:54.860Z,84.8
2019-01-15T17:15:35.475Z,85.08
2019-01-15T17:16:17.832Z,85.47
2019-01-15T17:17:04.118Z,85.37
2019-01-15T17:17:49.657Z,85.56
2019-01-15T17:18:35.286Z,85.6
2019-01-15T17:19:17.003Z,85.13
2019-01-15T17:19:59.676Z,85.22
2019-01-15T17:20:42.088Z,84.46
2019-01-15T17:21:31.693Z,83.98
2019-01-15T17:22:16.211Z,84.08
2019-01-15T17:22:58.289Z,84.94
2019-01-15T17:23:40.524Z,84.94
2019-01-15T17:24:21.974Z,83.89
2019-01-15T17:25:03.955Z,84.27
2019-01-15T17:25:46.218Z,85.03
2019-01-15T17:26:30.157Z,84.75
2019-01-15T17:27:10.567Z,84.65
2019-01-15T17:27:52.126Z,83.98
2019-01-15T17:28:36.379Z,83.98
2019-01-15T17:29:20.280Z,83.98
2019-01-15T17:30:00.705Z,84.75
2019-01-15T17:30:42.056Z,83.22
2019-01-15T17:31:26.796Z,83.32
2019-01-15T17:32:11.824Z,82.84
2019-01-15T17:32:52.184Z,83.32
2019-01-15T17:33:40.057Z,83.8
2019-01-15T17:34:21.922Z,83.32
2019-01-15T17:35:08.176Z,82.93
2019-01-15T17:35:53.477Z,83.13
2019-01-15T17:36:37.940Z,82.18
2019-01-15T17:37:18.742Z,82.27
2019-01-15T17:38:02.620Z,82.46
2019-01-15T17:38:43.957Z,83.13
2019-01-15T17:39:28.013Z,83.61
2019-01-15T17:40:10.338Z,82.56
2019-01-15T17:40:54.688Z,82.27
2019-01-15T17:41:36.150Z,83.61
2019-01-15T17:42:17.994Z,83.22
2019-01-15T17:43:01.270Z,83.61
2019-01-15T18:01:56.023Z,84.27
2019-01-15T18:02:42.712Z,84.65
2019-01-15T18:03:32.162Z,85.51
2019-01-15T18:04:15.101Z,84.94
2019-01-15T18:04:56.478Z,83.98
2019-01-15T18:05:47.159Z,84.27
2019-01-15T18:06:33.793Z,84.75
2019-01-15T18:07:14.782Z,84.94
2019-01-15T18:07:56.280Z,83.89
2019-01-15T18:08:41.536Z,84.08
2019-01-15T18:09:22.741Z,83.8
2019-01-15T18:10:03.942Z,84.75
2019-01-15T18:10:45.191Z,84.56
2019-01-15T18:11:44.116Z,84.94
2019-01-15T18:14:48.974Z,85.22
2019-01-15T18:15:29.574Z,85.7
2019-01-15T18:16:12.025Z,85.41
2019-01-15T18:16:54.678Z,85.32
2019-01-15T18:17:36.974Z,84.84
2019-01-15T18:18:19.287Z,85.6
2019-01-15T18:19:02.407Z,84.94
2019-01-15T18:19:44.878Z,84.65
2019-01-15T18:20:28.964Z,83.98
2019-01-15T18:21:11.203Z,84.27
2019-01-15T18:21:52.948Z,84.36
2019-01-15T18:22:37.121Z,84.08
2019-01-15T18:23:19.377Z,83.98
2019-01-15T18:24:02.514Z,84.46
2019-01-15T18:24:46.911Z,84.65
2019-01-15T18:25:38.140Z,84.75
2019-01-15T18:26:18.349Z,85.32
2019-01-15T18:27:00.481Z,85.6
2019-01-15T18:27:42.826Z,84.94
2019-01-15T18:28:23.123Z,84.75
2019-01-15T18:29:05.209Z,85.41
2019-01-15T18:29:45.629Z,84.84
2019-01-15T18:30:31.404Z,85.41
2019-01-15T18:31:13.434Z,85.32
2019-01-15T18:33:44.754Z,85.13
2019-01-15T18:34:29.244Z,84.94
2019-01-15T18:35:13.190Z,84.94
2019-01-15T18:35:53.983Z,85.32
2019-01-15T18:36:35.322Z,84.75
2019-01-15T18:37:17.283Z,84.84
2019-01-15T18:38:01.618Z,84.27
2019-01-15T18:38:45.488Z,85.32
2019-01-15T18:39:28.205Z,84.84
2019-01-15T18:40:08.596Z,84.08
2019-01-15T18:40:54.801Z,83.89
2019-01-15T18:41:36.344Z,85.37
2019-01-15T18:42:19.349Z,85.89
2019-01-15T18:43:03.438Z,85.51
2019-01-15T18:43:45.286Z,85.7
2019-01-15T18:44:25.828Z,85.13
2019-01-15T18:45:07.354Z,84.94
2019-01-15T18:45:48.653Z,85.03
2019-01-15T18:46:30.947Z,84.75
2019-01-15T18:47:13.638Z,84.65
2019-01-15T18:47:57.896Z,84.84
2019-01-15T18:48:38.425Z,85.13
2019-01-15T18:49:22.733Z,85.41
2019-01-15T18:50:05.632Z,85.75
2019-01-15T18:50:46.114Z,86.32
2019-01-15T18:53:06.614Z,85.7
2019-01-15T18:53:53.731Z,85.6
2019-01-15T18:54:33.985Z,85.94
2019-01-15T18:55:25.739Z,85.89
2019-01-15T18:56:08.048Z,85.8
2019-01-15T18:56:50.206Z,86.08
2019-01-15T18:57:30.612Z,85.22
2019-01-15T18:58:11.093Z,85.41
2019-01-15T18:58:56.260Z,84.94
2019-01-15T18:59:38.615Z,84.84
2019-01-15T19:00:19.572Z,84.65
2019-01-15T19:01:01.585Z,84.56
2019-01-15T19:01:41.956Z,85.22
2019-01-15T19:02:26.255Z,84.75
2019-01-15T19:03:07.805Z,84.94
2019-01-15T19:03:54.701Z,85.03
2019-01-15T19:04:39.956Z,85.51
2019-01-15T19:05:20.983Z,84.94
2019-01-15T19:06:03.326Z,85.13
2019-01-15T19:06:43.803Z,84.84
2019-01-15T19:07:44.413Z,85.85
2019-01-15T19:08:24.839Z,85.94
2019-01-15T19:09:08.729Z,86.42
2019-01-15T19:09:50.378Z,86.61
2019-01-15T19:10:30.619Z,86.9
2019-01-15T19:11:14.760Z,87.08
2019-01-15T19:11:55.175Z,86.42
2019-01-15T19:12:39.761Z,86.51
2019-01-15T19:13:20.194Z,86.32
2019-01-15T19:14:01.621Z,86.22
2019-01-15T19:14:42.123Z,86.84
2019-01-15T19:15:24.014Z,86.8
2019-01-15T19:16:04.399Z,86.42
2019-01-15T19:16:48.969Z,85.85
2019-01-15T19:17:31.404Z,86.04
2019-01-15T19:18:25.675Z,86.61
2019-01-15T19:19:06.259Z,86.42
2019-01-15T19:19:49.549Z,86.13
2019-01-15T19:20:43.719Z,86.42
2019-01-15T19:21:26.057Z,86.42
2019-01-15T19:22:08.264Z,86.9
2019-01-15T19:22:55.706Z,87.18
2019-01-15T19:23:42.287Z,86.61
2019-01-15T19:24:25.633Z,86.32
2019-01-15T19:25:10.275Z,86.46
2019-01-15T19:25:52.625Z,86.27
2019-01-15T19:26:34.088Z,85.89
2019-01-15T19:27:14.478Z,85.8
2019-01-15T19:27:56.478Z,86.08
2019-01-15T19:28:37.951Z,85.89
2019-01-15T19:29:20.239Z,84.94
2019-01-15T19:30:04.552Z,84.65
2019-01-15T19:30:47.774Z,84.84
2019-01-15T19:31:30.802Z,84.84
2019-01-15T19:32:13.239Z,85.22
2019-01-15T19:32:53.638Z,84.84
2019-01-15T19:33:34.106Z,84.17
2019-01-15T19:34:14.509Z,84.56
2019-01-15T19:34:56.752Z,84.65
2019-01-15T19:35:39.277Z,84.36
2019-01-15T19:36:21.402Z,85.03
2019-01-15T19:37:01.900Z,85.13
2019-01-15T19:37:42.651Z,84.75
2019-01-15T19:39:38.769Z,86.55
2019-01-15T19:40:18.095Z,86.46
2019-01-15T19:41:00.293Z,86.18
2019-01-15T19:41:44.765Z,86.55
2019-01-15T19:42:28.940Z,86.55
2019-01-15T19:43:10.929Z,86.46
2019-01-15T19:43:53.208Z,86.75
2019-01-15T19:44:33.654Z,86.46
2019-01-15T19:45:14.036Z,85.6
2019-01-15T19:46:11.929Z,85.41
2019-01-15T19:46:52.425Z,86.55
2019-01-15T19:47:36.804Z,86.46
2019-01-15T19:48:18.105Z,86.36
2019-01-15T19:50:12.998Z,86.46
2019-01-15T19:50:56.787Z,85.8
2019-01-15T19:51:37.353Z,86.27
2019-01-15T19:52:36.248Z,87.23
2019-01-15T19:53:17.201Z,86.84
2019-01-15T19:53:58.723Z,86.36
2019-01-15T19:54:42.833Z,86.27
2019-01-15T19:56:53.708Z,86.18
2019-01-15T19:57:36.179Z,86.46
2019-01-15T19:58:22.355Z,86.65
2019-01-15T19:59:06.461Z,87.13
2019-01-15T19:59:46.912Z,87.6
2019-01-15T20:00:30.870Z,87.23
2019-01-15T20:01:11.219Z,87.03
2019-01-15T20:01:53.451Z,88.13
2019-01-15T20:02:43.288Z,88.42
2019-01-15T20:03:25.291Z,89.27
2019-01-15T20:04:09.507Z,89.51
2019-01-15T20:04:51.838Z,89.32
2019-01-15T20:05:33.836Z,87.51
2019-01-15T20:06:15.245Z,87.13
2019-01-15T20:08:13.659Z,86.55
2019-01-15T20:09:01.685Z,85.89
2019-01-15T20:09:42.062Z,86.36
2019-01-15T20:10:24.444Z,86.46
2019-01-15T20:11:06.551Z,86.46
2019-01-15T20:11:55.443Z,86.94
2019-01-15T20:12:37.776Z,87.13
2019-01-15T20:13:18.359Z,86.75
2019-01-15T20:13:58.691Z,85.6
2019-01-15T20:14:39.091Z,86.46
2019-01-15T20:15:19.857Z,85.6
2019-01-15T20:16:03.637Z,85.99
2019-01-15T20:16:46.751Z,86.46
2019-01-15T20:17:32.611Z,86.84
2019-01-15T20:18:13.050Z,85.6
2019-01-15T20:18:58.948Z,86.65
2019-01-15T20:19:39.385Z,86.46
2019-01-15T20:20:23.459Z,85.99
2019-01-15T20:21:07.779Z,86.55
2019-01-15T20:21:51.011Z,86.84
2019-01-15T20:22:31.416Z,86.84
2019-01-15T20:23:13.505Z,86.75
2019-01-15T20:24:02.381Z,85.6
2019-01-15T20:26:51.794Z,85.32
2019-01-15T20:27:36.117Z,84.46
2019-01-15T20:28:18.782Z,85.13
2019-01-15T20:32:04.292Z,85.32
2019-01-15T20:32:50.597Z,86.55
2019-01-15T20:33:33.650Z,86.18
2019-01-15T20:34:17.948Z,86.55
2019-01-15T20:35:00.420Z,86.84
2019-01-15T20:35:41.115Z,86.65
2019-01-15T20:36:26.571Z,86.65
2019-01-15T20:37:27.712Z,87.23
2019-01-15T20:38:11.659Z,87.7
2019-01-15T20:38:54.657Z,86.65
2019-01-15T20:39:35.016Z,87.41
2019-01-15T20:40:18.145Z,87.32
2019-01-15T20:41:04.608Z,87.41
2019-01-15T20:41:46.916Z,87.41
2019-01-15T20:42:33.222Z,87.13
2019-01-15T20:43:13.561Z,86.18
2019-01-15T20:43:53.999Z,85.99
2019-01-15T20:44:34.820Z,86.36
2019-01-15T20:45:16.797Z,85.89
2019-01-15T20:45:59.157Z,86.65
2019-01-15T20:46:41.419Z,87.32
2019-01-15T20:47:25.604Z,87.6
2019-01-15T20:48:05.067Z,87.03
2019-01-15T20:48:46.437Z,87.23
2019-01-15T20:49:28.231Z,87.79
2019-01-15T20:50:08.716Z,88.08
2019-01-15T20:50:51.038Z,89.22
2019-01-15T20:51:31.526Z,89.32
2019-01-15T20:52:12.949Z,89.22
2019-01-15T20:52:53.453Z,88.75
2019-01-15T20:53:35.579Z,88.65
2019-01-15T20:54:25.312Z,88.65
2019-01-15T20:55:08.116Z,88.37
2019-01-15T20:55:57.361Z,88.37
2019-01-15T20:56:39.730Z,87.79
2019-01-15T20:57:21.724Z,88.18
2019-01-15T20:58:04.153Z,88.37
2019-01-15T21:00:13.478Z,88.93
2019-01-15T21:00:55.348Z,88.93
2019-01-15T21:01:39.555Z,88.75
2019-01-15T21:02:24.326Z,88.37
2019-01-15T21:03:10.308Z,88.46
2019-01-15T21:03:53.540Z,88.84
2019-01-15T21:04:36.833Z,88.65
2019-01-15T21:05:17.248Z,88.27
2019-01-15T21:05:58.554Z,87.6
2019-01-15T21:06:40.911Z,87.79
2019-01-15T21:07:21.291Z,87.13
2019-01-15T21:08:01.619Z,87.79
2019-01-15T21:08:44.245Z,88.08
2019-01-15T21:09:29.835Z,87.79
2019-01-15T21:10:11.186Z,87.89
2019-01-15T21:12:08.119Z,89.75
2019-01-15T21:12:52.061Z,89.56
2019-01-15T21:13:34.174Z,89.56
2019-01-15T21:14:14.602Z,90.13
2019-01-15T21:14:59.479Z,89.94
2019-01-15T21:15:48.290Z,90.32
2019-01-15T21:16:28.688Z,90.7
2019-01-15T21:17:09.088Z,90.8
2019-01-15T21:17:49.532Z,90.32
2019-01-15T21:18:35.799Z,89.75
2019-01-15T21:27:24.503Z,90.51
2019-01-15T21:28:09.476Z,90.75
2019-01-15T21:28:56.466Z,90.03
2019-01-15T21:29:45.707Z,90.08
2019-01-15T21:30:26.373Z,89.61
2019-01-15T21:31:17.227Z,89.79
2019-01-15T21:31:59.525Z,89.22
2019-01-15T21:32:43.577Z,89.03
2019-01-15T21:33:23.952Z,88.93
2019-01-15T21:34:05.266Z,88.08
2019-01-15T21:34:47.575Z,88.7
2019-01-15T21:35:31.555Z,89.56
2019-01-15T21:36:12.971Z,89.89
2019-01-15T21:36:53.386Z,89.79
2019-01-15T21:40:39.375Z,89.32
2019-01-15T21:43:51.916Z,88.65
2019-01-15T21:44:41.013Z,88.37
2019-01-15T21:46:41.046Z,87.98
2019-01-15T21:48:30.424Z,87.41
2019-01-15T21:49:19.611Z,87.6
2019-01-15T21:50:02.155Z,87.98
2019-01-15T21:50:43.073Z,88.27
2019-01-15T21:51:25.420Z,89.61
2019-01-15T21:52:13.747Z,89.22
2019-01-15T21:52:54.110Z,88.08
2019-01-15T21:53:34.511Z,87.6
2019-01-15T21:54:16.827Z,88.56
2019-01-15T21:55:00.570Z,87.98
2019-01-15T21:55:44.417Z,88.46
2019-01-15T21:56:28.684Z,88.84
2019-01-15T21:57:09.149Z,88.37
2019-01-15T21:57:49.889Z,88.08
2019-01-15T21:58:34.119Z,88.56
2019-01-15T21:59:16.201Z,88.08
2019-01-15T22:00:00.229Z,88.65
2019-01-15T22:00:40.515Z,89.32
2019-01-15T22:01:21.028Z,89.32
2019-01-15T22:02:03.387Z,88.46
2019-01-15T22:02:44.380Z,87.7
2019-01-15T22:03:33.887Z,87.6
2019-01-15T22:04:14.661Z,86.46
2019-01-15T22:04:55.882Z,85.99
2019-01-15T22:05:36.265Z,85.6
2019-01-15T22:06:16.713Z,85.6
2019-01-15T22:06:57.187Z,85.7
2019-01-15T22:07:39.413Z,85.32
2019-01-15T22:08:27.927Z,85.99
2019-01-15T22:09:12.552Z,86.27
2019-01-15T22:09:56.449Z,86.55
2019-01-15T22:10:42.520Z,86.84
2019-01-15T22:11:28.925Z,86.65
2019-01-15T22:12:12.482Z,86.84
2019-01-15T22:12:58.330Z,86.84
2019-01-15T22:13:41.501Z,86.65
2019-01-15T22:14:22.132Z,86.55
2019-01-15T22:15:04.907Z,85.6
2019-01-15T22:15:47.061Z,85.99
2019-01-15T22:16:29.411Z,86.84
2019-01-15T22:18:52.635Z,85.8
2019-01-15T22:19:39.427Z,85.6
2019-01-15T22:20:26.308Z,86.55
2019-01-15T22:21:08.614Z,87.13
2019-01-15T22:21:50.977Z,86.46
2019-01-15T22:22:46.871Z,85.89
2019-01-15T22:23:28.620Z,85.99
2019-01-15T22:24:11.358Z,86.27
2019-01-15T22:24:52.834Z,85.99
2019-01-15T22:25:33.571Z,86.27
2019-01-15T22:26:17.297Z,85.41
2019-01-15T22:27:04.827Z,85.51
2019-01-15T23:06:37.592Z,89.75
2019-01-15T23:07:30.253Z,90.32
2019-01-15T23:08:15.911Z,90.42
2019-01-15T23:09:02.259Z,89.65
2019-01-15T23:09:44.537Z,89.94
2019-01-15T23:10:26.964Z,90.8
2019-01-15T23:11:13.271Z,90.42
2019-01-15T23:11:56.972Z,91.08
2019-01-15T23:12:37.423Z,91.17
2019-01-15T23:13:23.553Z,89.84
2019-01-15T23:14:06.834Z,90.7
2019-01-15T23:16:12.415Z,89.94
2019-01-15T23:16:56.384Z,90.42
2019-01-15T23:17:39.610Z,89.75
2019-01-15T23:18:20.026Z,89.08
2019-01-15T23:19:02.502Z,88.42
2019-01-15T23:19:43.784Z,89.56
2019-01-15T23:20:24.161Z,88.04
2019-01-15T23:21:08.449Z,88.7
2019-01-15T23:21:48.904Z,88.6
2019-01-15T23:22:29.487Z,88.04
2019-01-15T23:23:13.577Z,89.37
2019-01-15T23:23:58.545Z,88.89
2019-01-15T23:24:47.747Z,88.79
2019-01-15T23:27:17.486Z,88.37
2019-01-15T23:29:02.625Z,88.08
2019-01-15T23:29:45.737Z,87.7
2019-01-15T23:30:28.848Z,87.03
2019-01-15T23:31:26.940Z,86.55
2019-01-15T23:32:07.390Z,86.65
2019-01-15T23:32:49.425Z,86.84
2019-01-15T23:33:31.490Z,87.32
2019-01-15T23:34:13.182Z,87.89
2019-01-15T23:34:54.427Z,87.79
2019-01-15T23:35:34.884Z,87.32
2019-01-15T23:36:17.192Z,88.08
2019-01-15T23:36:58.521Z,87.89
2019-01-15T23:37:38.964Z,86.46
2019-01-15T23:38:27.154Z,86.27
2019-01-15T23:39:07.716Z,86.36
2019-01-15T23:42:33.567Z,85.99
2019-01-15T23:43:27.125Z,86.18
2019-01-15T23:45:43.818Z,85.89
2019-01-15T23:46:24.898Z,85.03
2019-01-15T23:47:06.917Z,83.98
2019-01-15T23:47:47.491Z,85.22
2019-01-15T23:48:31.406Z,84.94
2019-01-15T23:50:28.327Z,85.22
2019-01-15T23:51:09.104Z,85.7
2019-01-15T23:51:49.856Z,85.08
2019-01-15T23:52:31.820Z,84.84
2019-01-15T23:53:12.216Z,84.94
2019-01-15T23:53:52.651Z,85.51
2019-01-15T23:54:34.651Z,85.51
2019-01-15T23:55:15.125Z,85.13
2019-01-15T23:55:57.280Z,85.7
2019-01-15T23:57:58.739Z,84.94
